• Join FlightAware (Why Join?)
  • Login
  • US Flag 
09:02PM EDT


 

Airport Tracker/Info


-or-


 

Live Flight TrackerFlight Track Log ✈ EJA941 ✈ 23-Jun-2013 ✈ KMDW - KPIE

Flight Track Log - Related Links

Times and Time Zones

All times are in EDT time to prevent confusion due to time zone crossing. See the EJA941 flight status page for this flight to view local times or setup timezone preferences in your user account.

Time Position Orientation Groundspeed Altitude Reporting Facility
EDT Latitude Longitude Course Direction KTS MPH feet Rate Location/Type
06:57PM 41.7667 -87.7833 346° North 179 206 2,200  Level Chicago TRACON
06:58PM 41.8167 -87.8000 346° North 258 297 3,100 960 Climbing Chicago TRACON
06:59PM 41.8333 -87.7167 75° East 260 299 4,100 1,920 Climbing Chicago TRACON
07:01PM 41.8033 -87.5653 105° East 287 330 7,900 2,760 Climbing Chicago Center
07:02PM 41.7942 -87.4561 96° East 294 338 11,000 2,520 Climbing Chicago Center
07:03PM 41.7850 -87.3433 96° East 302 348 13,200 1,920 Climbing Chicago Center
07:04PM 41.7756 -87.2158 96° East 340 391 15,000 1,800 Climbing Chicago Center
07:05PM 41.7669 -87.0850 95° East 352 405 16,900 1,920 Climbing Chicago Center
07:06PM 41.7250 -86.9597 114° Southeast 369 425 19,000 1,800 Climbing Chicago Center
07:07PM 41.6744 -86.8067 114° Southeast 376 433 20,700 1,500 Climbing Chicago Center
07:08PM 41.6322 -86.6908 116° Southeast 388 447 22,100 1,020 Climbing Chicago Center
07:09PM 41.5808 -86.5497 116° Southeast 415 478 22,800 1,020 Climbing Chicago Center
07:10PM 41.5178 -86.3744 116° Southeast 436 502 24,300 1,020 Climbing Chicago Center
07:11PM 41.4639 -86.2239 115° Southeast 450 518 25,000 300 Climbing Chicago Center
07:12PM 41.3653 -86.1117 139° Southeast 474 545 25,000  Level Chicago Center
07:13PM 41.2353 -86.0664 165° South 487 560 25,000  Level Chicago Center
07:14PM 41.1039 -86.0197 165° South 493 567 25,000 480 Level Chicago Center
07:15PM 40.9842 -85.9322 151° Southeast 496 571 26,100 1,020 Climbing Chicago Center
07:16PM 40.8419 -85.8286 151° Southeast 490 564 27,100 1,140 Climbing Chicago Center
07:17PM 40.7244 -85.7458 152° Southeast 485 558 28,500 1,320 Climbing Chicago Center
07:18PM 40.6186 -85.6686 151° Southeast 480 552 29,900 1,500 Climbing Chicago Center
07:19PM 40.5008 -85.5836 151° Southeast 482 555 31,600 1,680 Climbing Chicago Center
07:20PM 40.3592 -85.4822 151° Southeast 483 556 33,400 1,380 Climbing Chicago Center
07:21PM 40.2403 -85.4017 153° Southeast 483 556 34,500 1,740 Climbing Indianapolis Center
07:22PM 40.1194 -85.3164 152° Southeast 489 563 37,000 2,040 Climbing Indianapolis Center
07:23PM 40.0017 -85.2333 152° Southeast 483 556 38,800 1,980 Climbing Indianapolis Center
07:24PM 39.8842 -85.1528 152° Southeast 478 550 41,100 2,040 Climbing Indianapolis Center
07:25PM 39.7675 -85.0975 160° South 447 514 43,100 1,380 Climbing Indianapolis Center
07:26PM 39.6467 -85.0594 166° South 445 512 44,000 900 Climbing Indianapolis Center
07:27PM 39.5256 -85.0206 166° South 448 516 45,000 480 Climbing Indianapolis Center
07:28PM 39.3783 -84.9717 166° South 452 520 45,000  Level Indianapolis Center
07:29PM 39.2506 -84.9297 166° South 468 539 45,000  Level Indianapolis Center
07:30PM 39.1200 -84.8886 166° South 480 552 45,000  Level Indianapolis Center
07:31PM 38.9864 -84.8456 166° South 490 564 45,000  Level Indianapolis Center
07:32PM 38.8517 -84.8022 166° South 497 572 45,000  Level Indianapolis Center
07:33PM 38.7172 -84.7589 166° South 497 572 45,000  Level Indianapolis Center
07:35PM 38.5678 -84.7133 167° South 496 571 45,000  Level Indianapolis Center
07:36PM 38.4347 -84.6692 165° South 495 570 45,000  Level Indianapolis Center
07:37PM 38.3003 -84.6281 167° South 494 568 45,000  Level Indianapolis Center
07:38PM 38.1678 -84.5867 166° South 491 565 45,000  Level Indianapolis Center
07:39PM 38.0356 -84.5428 165° South 490 564 45,000  Level Indianapolis Center
07:40PM 37.8781 -84.4958 167° South 498 573 45,000  Level Indianapolis Center
07:41PM 37.7422 -84.4528 166° South 499 574 45,000  Level Indianapolis Center
07:42PM 37.6083 -84.4114 166° South 499 574 45,000  Level Indianapolis Center
07:43PM 37.4744 -84.3672 165° South 498 573 45,000  Level Indianapolis Center
07:44PM 37.3383 -84.3269 167° South 501 577 45,000  Level Indianapolis Center
07:45PM 37.2039 -84.2858 166° South 498 573 45,000  Level Indianapolis Center
07:46PM 37.0478 -84.2392 167° South 495 570 45,000  Level Indianapolis Center
07:47PM 36.9153 -84.1975 166° South 493 567 45,000  Level Indianapolis Center
07:48PM 36.7814 -84.1575 167° South 495 570 45,000  Level Indianapolis Center
07:49PM 36.6489 -84.1178 166° South 492 566 45,000  Level Indianapolis Center
07:50PM 36.5067 -84.0744 166° South 491 565 45,000  Level Indianapolis Center
07:51PM 36.3733 -84.0350 167° South 491 565 45,000  Level Indianapolis Center
07:52PM 36.2394 -83.9939 166° South 493 567 45,000  Level Indianapolis Center
07:53PM 36.1036 -83.9839 177° South 487 560 45,000  Level Indianapolis Center
07:54PM 35.9672 -83.9778 178° South 487 560 45,000  Level Indianapolis Center
07:55PM 35.8317 -83.9717 178° South 485 558 45,000  Level Indianapolis Center
07:56PM 35.6942 -83.9667 178° South 489 563 45,000  Level Indianapolis Center
07:57PM 35.5589 -83.9600 178° South 485 558 45,000  Level Indianapolis Center
07:59PM 35.4264 -83.9290 178° South  Level FlightAware Approximate
07:59PM 35.2258 -83.9344 178° South 489 563 45,000  Level Atlanta Center
08:00PM 35.0964 -83.8814 161° South 484 557 45,000  Level Atlanta Center
08:01PM 34.9650 -83.8258 161° South 491 565 45,000  Level Atlanta Center
08:02PM 34.8375 -83.7706 160° South 498 573 45,000  Level Atlanta Center
08:03PM 34.7039 -83.7178 162° South 498 573 45,000  Level Atlanta Center
08:04PM 34.5722 -83.6656 162° South 503 579 45,000  Level Atlanta Center
08:05PM 34.4406 -83.6131 162° South 498 573 45,000  Level Atlanta Center
08:06PM 34.3089 -83.5611 162° South 503 579 45,000  Level Atlanta Center
08:07PM 34.1772 -83.5114 163° South 503 579 45,000  Level Atlanta Center
08:08PM 34.0433 -83.4597 162° South 503 579 45,000  Level Atlanta Center
08:09PM 33.9242 -83.4131 162° South 503 579 45,000  Level Atlanta Center
08:10PM 33.7903 -83.3614 162° South 503 579 45,000  Level Atlanta Center
08:11PM 33.6586 -83.3125 163° South 503 579 45,000  Level Atlanta Center
08:12PM 33.5289 -83.2614 162° South 497 572 45,000  Level Atlanta Center
08:13PM 33.3969 -83.2128 163° South 497 572 45,000  Level Atlanta Center
08:14PM 33.2631 -83.1644 163° South 504 580 45,000  Level Atlanta Center
08:15PM 33.1206 -83.1086 162° South 498 573 45,000  Level Atlanta Center
08:16PM 32.9889 -83.0556 161° South 495 570 45,000  Level Atlanta Center
08:17PM 32.8589 -83.0075 163° South 495 570 45,000  Level Atlanta Center
08:18PM 32.7269 -82.9572 162° South 500 575 45,000  Level Atlanta Center
08:19PM 32.6097 -82.9144 163° South 500 575 45,000  Level Atlanta Center
08:21PM 32.4108 -82.8361 162° South 498 573 45,000  Level Jacksonville Center
08:22PM 32.2814 -82.7844 161° South 498 573 45,000  Level Jacksonville Center
08:23PM 32.1519 -82.7356 162° South 498 573 45,000  Level Jacksonville Center
08:24PM 32.0203 -82.6892 163° South 498 573 45,000  Level Jacksonville Center
08:25PM 31.8950 -82.6406 162° South 491 565 45,000  Level Jacksonville Center
08:26PM 31.7758 -82.5969 163° South 473 544 45,000  Level Jacksonville Center
08:27PM 31.6544 -82.5533 163° South 459 528 45,000 -480 Level Jacksonville Center
08:28PM 31.5311 -82.5122 164° South 459 528 44,100 -1,260 Descending Jacksonville Center
08:29PM 31.3933 -82.5128 180° South 451 519 42,600 -1,620 Descending Jacksonville Center
08:30PM 31.2786 -82.5231 184° South 435 501 40,900 -1,560 Descending Jacksonville Center
08:31PM 31.1639 -82.5283 182° South 425 489 39,500 -1,740 Descending Jacksonville Center
08:32PM 31.0428 -82.5336 182° South 425 489 37,500 -2,040 Descending Jacksonville Center
08:33PM 30.9194 -82.5389 182° South 430 495 35,500 -1,800 Descending Jacksonville Center
08:34PM 30.7983 -82.5444 182° South 435 501 34,000 -780 Descending Jacksonville Center
08:35PM 30.6775 -82.5472 181° South 441 507 34,000  Level Jacksonville Center
08:36PM 30.5500 -82.5547 183° South 446 513 34,000  Level Jacksonville Center
08:37PM 30.4228 -82.5603 182° South 451 519 34,000  Level Jacksonville Center
08:38PM 30.2975 -82.5558 178° South 456 525 34,000  Level Jacksonville Center
08:39PM 30.1761 -82.5297 169° South 456 525 34,000  Level Jacksonville Center
08:40PM 30.0531 -82.4967 167° South 456 525 34,000  Level Jacksonville Center
08:41PM 29.9297 -82.4611 166° South 474 545 34,000 -360 Level Jacksonville Center
08:42PM 29.7897 -82.4283 169° South 501 577 33,300 -1,800 Descending Jacksonville Center
08:43PM 29.6350 -82.3908 168° South 515 593 30,500 -2,700 Descending Jacksonville Center
08:44PM 29.5033 -82.3606 169° South 505 581 27,900 -2,520 Descending Jacksonville Center
08:45PM 29.3842 -82.3325 168° South 480 552 25,500 -2,400 Descending Jacksonville Center
08:46PM 29.2589 -82.3189 175° South 462 532 23,200 -2,340 Descending Jacksonville Center
08:47PM 29.1442 -82.3053 174° South 441 507 20,900 -2,280 Descending Jacksonville Center
08:48PM 29.0314 -82.2917 174° South 426 490 18,700 -2,100 Descending Jacksonville Center
08:49PM 28.9353 -82.2806 174° South 407 468 16,700 -1,920 Descending Jacksonville Center
08:51PM 28.7167 -82.2500 173° South 320 368 12,800 -1,500 Descending Tampa TRACON
08:52PM 28.6333 -82.2500 180° South 287 330 12,000 -540 Descending Tampa TRACON
08:53PM 28.5500 -82.2667 190° South 295 339 11,700 -780 Descending Tampa TRACON
08:54PM 28.5167 -82.3500 246° West 291 335 10,500 -900 Descending Tampa TRACON
08:55PM 28.4667 -82.4167 230° Southwest 286 329 10,000 -240 Descending Tampa TRACON
08:56PM 28.4167 -82.5000 236° Southwest 284 327 10,100 -600 Climbing Tampa TRACON
08:57PM 28.3833 -82.5833 246° West 287 330 8,800 -1,680 Descending Tampa TRACON
08:58PM 28.3333 -82.6500 230° Southwest 289 333 6,800 -1,500 Descending Tampa TRACON
08:59PM 28.2833 -82.7000 221° Southwest 286 329 6,000 -1,200 Descending Tampa TRACON
09:00PM 28.2167 -82.7167 192° South 273 314 4,600 -1,500 Descending Tampa TRACON
09:01PM 28.1333 -82.7333 190° South 262 302 3,100 -900 Descending Tampa TRACON
09:02PM 28.0833 -82.7167 164° South 222 255 2,800 -660 Descending Tampa TRACON
09:03PM 28.0167 -82.7000 168° South 211 243 1,800 -900 Descending Tampa TRACON
09:04PM 27.9667 -82.7000 180° South 138 159 1,000 -720 Descending Tampa TRACON
09:05PM 27.9333 -82.7000 180° South 130 150 400 -600 Descending Tampa TRACON
09:07PM 27.9100 -82.6874 171° South  Level Estimated
09:14PM 27.9100 -82.6874 171° South  Level Estimated
09:15PM 27.9100 -82.6874 171° South  Level Estimated